M I D A S
Marine Information and Data Acquisition System
Tripno 1034 of the Zeeleeuw from 2006-02-22 07:44:26 to 2006-02-22 12:53:22
Back to CruiseResearch ActivitiesStationsMapUnderway DataData graphs

EquipmentUnitsComments
TimeDGPSUTC
LatitudeDGPSDM.mWGS84
LongitudeDGPSDM.mWGS84
SpeedMeteo Stationm/sRelative wind speed
DirectionMeteo StationdegRelative wind direction
TemperatureMeteo Stationdeg CelciusAir temperature
PressureMeteo StationPaAtmospheric pressure
HumidityMeteo Station%Relative humidity
Missing or incorrect values are displayed as -999
Metereological data collected by the RV Zeeleeuw from 2006-02-22 07:27:39 to 2006-02-22 13:15:29
Time Latitude Longitude Speed Direction Temperature Pressure Humidity
2006-02-22 07:28 51°13.615 2°56.034 -999 299 3 102200 88
2006-02-22 07:29 51°13.649 2°55.929 -999 293 3 102220 88
2006-02-22 07:30 51°13.695 2°55.805 -999 265 3.1 102210 88
2006-02-22 07:31 51°13.719 2°55.713 -999 355 3.1 102210 88
2006-02-22 07:32 51°13.719 2°55.714 -999 11 3.1 102210 88
2006-02-22 07:33 51°13.729 2°55.704 -999 80 3.1 102210 88
2006-02-22 07:34 51°13.798 2°55.655 -999 54 3.1 102220 88
2006-02-22 07:35 51°13.909 2°55.572 -999 71 3.1 102220 88
2006-02-22 07:36 51°14.03 2°55.483 -999 63 3.1 102210 88
2006-02-22 07:37 51°14.15 2°55.399 -999 64 3.1 102220 88
2006-02-22 07:38 51°14.261 2°55.26 -999 100 3 102210 88
2006-02-22 07:39 51°14.355 2°55.056 -999 99 3.1 102210 88
2006-02-22 07:40 51°14.409 2°54.79 -999 130 3.1 102200 88
2006-02-22 07:41 51°14.454 2°54.496 -999 119 3.1 102200 88
2006-02-22 07:42 51°14.407 2°54.209 -999 242 3.1 102140 88
2006-02-22 07:43 51°14.31 2°53.937 -999 220 3.1 102130 88
2006-02-22 07:44 51°14.205 2°53.656 -999 234 3.1 102130 88
2006-02-22 07:45 51°14.103 2°53.372 -999 217 3.1 102130 88
2006-02-22 07:46 51°14.005 2°53.092 -999 236 3.2 102130 88
2006-02-22 07:47 51°13.902 2°52.806 -999 238 3.1 102130 88
2006-02-22 07:48 51°13.797 2°52.523 -999 255 3.1 102130 88
2006-02-22 07:49 51°13.695 2°52.232 -999 244 3.2 102130 88
2006-02-22 07:50 51°13.59 2°51.948 -999 228 3.2 102130 89
2006-02-22 07:51 51°13.487 2°51.67 -999 247 3.2 102130 88
2006-02-22 07:52 51°13.38 2°51.392 -999 256 3.2 102130 88
2006-02-22 07:53 51°13.277 2°51.109 -999 230 3.2 102140 89
2006-02-22 07:54 51°13.173 2°50.823 -999 225 3.2 102220 89
2006-02-22 07:55 51°13.068 2°50.538 -999 196 3.2 102230 89
2006-02-22 07:56 51°12.963 2°50.254 -999 199 3.3 102230 89
2006-02-22 07:57 51°12.858 2°49.972 -999 251 3.4 102240 88
2006-02-22 07:58 51°12.751 2°49.688 -999 204 3.4 102230 88
2006-02-22 07:59 51°12.642 2°49.406 -999 227 3.4 102250 87
2006-02-22 08:00 51°12.539 2°49.113 -999 174 3.4 102250 87
2006-02-22 08:01 51°12.434 2°48.829 -999 226 3.5 102260 88
2006-02-22 08:02 51°12.327 2°48.546 -999 227 3.5 102250 87
2006-02-22 08:03 51°12.223 2°48.259 -999 228 3.4 102260 86
2006-02-22 08:04 51°12.117 2°47.973 -999 252 3.4 102250 87
2006-02-22 08:05 51°12.01 2°47.691 -999 246 3.4 102250 87
2006-02-22 08:06 51°11.906 2°47.408 -999 233 3.4 102260 87
2006-02-22 08:07 51°11.8 2°47.124 -999 232 3.3 102260 87
2006-02-22 08:08 51°11.698 2°46.83 -999 197 3.3 102270 87
2006-02-22 08:09 51°11.629 2°46.508 -999 189 3.4 102260 87
2006-02-22 08:10 51°11.572 2°46.189 -999 218 3.4 102270 87
2006-02-22 08:11 51°11.514 2°45.864 -999 181 3.6 102270 87
2006-02-22 08:12 51°11.456 2°45.539 -999 219 3.5 102270 85
2006-02-22 08:13 51°11.397 2°45.206 -999 225 3.5 102270 85
2006-02-22 08:14 51°11.334 2°44.89 -999 182 3.5 102280 86
2006-02-22 08:15 51°11.275 2°44.562 -999 138 3.5 102280 86
2006-02-22 08:16 51°11.217 2°44.234 -999 204 3.5 102270 86
2006-02-22 08:17 51°11.165 2°43.902 -999 236 3.5 102270 86
2006-02-22 08:18 51°11.111 2°43.564 -999 176 3.5 102280 86
2006-02-22 08:19 51°11.059 2°43.239 -999 153 3.5 102290 87
2006-02-22 08:20 51°11.011 2°42.903 -999 171 3.5 102270 87
2006-02-22 08:21 51°10.961 2°42.565 -999 163 3.5 102290 87
2006-02-22 08:22 51°10.91 2°42.238 -999 231 3.5 102270 87
2006-02-22 08:23 51°10.86 2°41.906 -999 147 3.5 102290 87
2006-02-22 08:24 51°10.81 2°41.576 -999 113 3.6 102280 87
2006-02-22 08:25 51°10.758 2°41.241 -999 158 3.5 102290 87
2006-02-22 08:26 51°10.718 2°40.911 -999 175 3.5 102280 87
2006-02-22 08:27 51°10.667 2°40.579 -999 159 3.5 102290 88
2006-02-22 08:28 51°10.609 2°40.241 -999 168 3.5 102290 87
2006-02-22 08:29 51°10.551 2°39.908 -999 158 3.6 102290 87
2006-02-22 08:30 51°10.496 2°39.569 -999 116 3.6 102300 87
2006-02-22 08:31 51°10.442 2°39.229 -999 144 3.6 102290 87
2006-02-22 08:32 51°10.381 2°38.889 -999 135 3.6 102310 88
2006-02-22 08:33 51°10.323 2°38.555 -999 169 3.6 102290 88
2006-02-22 08:34 51°10.257 2°38.218 -999 156 3.6 102290 88
2006-02-22 08:35 51°10.193 2°37.893 -999 174 3.5 102310 87
2006-02-22 08:36 51°10.128 2°37.554 -999 161 3.5 102300 88
2006-02-22 08:37 51°10.066 2°37.22 -999 153 3.5 102300 88
2006-02-22 08:38 51°10.017 2°36.876 -999 133 3.5 102300 88
2006-02-22 08:39 51°9.997 2°36.534 -999 133 3.5 102290 88
2006-02-22 08:40 51°9.993 2°36.177 -999 126 3.5 102300 88
2006-02-22 08:41 51°10.074 2°35.864 -999 90 3.4 102300 88
2006-02-22 08:42 51°10.258 2°35.767 -999 41 3.4 102250 88
2006-02-22 08:43 51°10.433 2°35.913 -999 31 3.5 102250 88
2006-02-22 08:44 51°10.613 2°36.084 -999 24 3.5 102240 88
2006-02-22 08:45 51°10.787 2°36.249 -999 30 3.5 102240 88
2006-02-22 08:46 51°10.958 2°36.425 -999 24 3.5 102250 88
2006-02-22 08:47 51°11.126 2°36.61 -999 28 3.4 102240 88
2006-02-22 08:48 51°11.299 2°36.801 -999 27 3.4 102250 87
2006-02-22 08:49 51°11.467 2°36.986 -999 27 3.4 102240 88
2006-02-22 08:50 51°11.632 2°37.163 -999 29 3.4 102240 88
2006-02-22 08:51 51°11.802 2°37.344 -999 29 3.4 102260 88
2006-02-22 08:52 51°11.975 2°37.529 -999 31 3.3 102260 88
2006-02-22 08:53 51°12.143 2°37.708 -999 30 3.3 102250 88
2006-02-22 08:54 51°12.315 2°37.892 -999 26 3.3 102260 87
2006-02-22 08:55 51°12.482 2°38.069 -999 28 3.3 102260 87
2006-02-22 08:56 51°12.652 2°38.247 -999 24 3.3 102260 86
2006-02-22 08:57 51°12.821 2°38.425 -999 30 3.3 102260 86
2006-02-22 08:58 51°12.986 2°38.598 -999 33 3.3 102260 87
2006-02-22 08:59 51°13.153 2°38.773 -999 37 3.3 102260 86
2006-02-22 09:00 51°13.338 2°38.89 -999 41 3.3 102260 86
2006-02-22 09:01 51°13.531 2°38.979 -999 48 3.3 102250 86
2006-02-22 09:02 51°13.74 2°38.957 -999 66 3.3 102260 86
2006-02-22 09:03 51°13.944 2°38.912 -999 56 3.3 102270 87
2006-02-22 09:04 51°14.126 2°38.775 -999 105 3.3 102240 87
2006-02-22 09:05 51°14.211 2°38.453 -999 124 3.2 102310 87
2006-02-22 09:06 51°14.207 2°38.117 -999 218 3.3 102320 87
2006-02-22 09:07 51°14.13 2°37.779 -999 199 3.5 102330 89
2006-02-22 09:08 51°14.051 2°37.452 -999 185 3.7 102330 87
2006-02-22 09:09 51°13.968 2°37.126 -999 197 3.9 102330 86
2006-02-22 09:10 51°13.885 2°36.797 -999 213 4.2 102340 85
2006-02-22 09:11 51°13.794 2°36.478 -999 203 4.2 102340 84
2006-02-22 09:12 51°13.698 2°36.154 -999 198 3.9 102350 83
2006-02-22 09:13 51°13.602 2°35.829 -999 218 3.9 102330 85
2006-02-22 09:14 51°13.507 2°35.508 -999 191 3.9 102330 84
2006-02-22 09:15 51°13.411 2°35.186 -999 198 3.9 102340 84
2006-02-22 09:16 51°13.316 2°34.863 -999 210 3.9 102340 82
2006-02-22 09:17 51°13.222 2°34.54 -999 201 3.8 102330 82
2006-02-22 09:18 51°13.133 2°34.225 -999 209 3.8 102330 84
2006-02-22 09:19 51°13.043 2°33.893 -999 214 4.2 102340 83
2006-02-22 09:20 51°12.951 2°33.573 -999 208 4.1 102340 81
2006-02-22 09:21 51°12.857 2°33.26 -999 180 4.1 102340 81
2006-02-22 09:22 51°12.767 2°32.945 -999 206 4.1 102330 81
2006-02-22 09:23 51°12.671 2°32.631 -999 209 4.1 102340 81
2006-02-22 09:24 51°12.578 2°32.311 -999 200 3.9 102340 82
2006-02-22 09:25 51°12.48 2°31.988 -999 219 3.8 102340 82
2006-02-22 09:26 51°12.387 2°31.665 -999 214 3.6 102350 82
2006-02-22 09:27 51°12.293 2°31.35 -999 214 3.5 102350 83
2006-02-22 09:28 51°12.2 2°31.023 -999 193 3.5 102350 84
2006-02-22 09:29 51°12.103 2°30.696 -999 210 3.8 102350 83
2006-02-22 09:30 51°12.011 2°30.37 -999 205 3.8 102350 82
2006-02-22 09:31 51°11.921 2°30.042 -999 210 3.7 102350 82
2006-02-22 09:32 51°11.832 2°29.717 -999 206 3.8 102350 84
2006-02-22 09:33 51°11.737 2°29.38 -999 189 4 102350 84
2006-02-22 09:34 51°11.644 2°29.058 -999 217 3.8 102350 83
2006-02-22 09:35 51°11.55 2°28.727 -999 225 3.8 102350 83
2006-02-22 09:36 51°11.466 2°28.395 -999 193 3.7 102350 84
2006-02-22 09:37 51°11.386 2°28.043 -999 178 4.1 102360 84
2006-02-22 09:38 51°11.318 2°27.697 -999 159 4.3 102350 84
2006-02-22 09:39 51°11.274 2°27.337 -999 175 4.2 102350 81
2006-02-22 09:40 51°11.238 2°26.977 -999 165 3.9 102350 82
2006-02-22 09:41 51°11.197 2°26.627 -999 163 3.7 102340 83
2006-02-22 09:42 51°11.152 2°26.266 -999 145 3.7 102340 84
2006-02-22 09:43 51°11.113 2°25.916 -999 196 3.7 102350 84
2006-02-22 09:44 51°11.096 2°25.56 -999 137 3.8 102340 84
2006-02-22 09:45 51°11.201 2°25.248 -999 89 3.7 102350 84
2006-02-22 09:46 51°11.387 2°25.13 -999 49 3.6 102310 85
2006-02-22 09:47 51°11.575 2°25.203 -999 36 3.5 102290 85
2006-02-22 09:48 51°11.718 2°25.409 -999 18 3.4 102350 85
2006-02-22 09:49 51°11.86 2°25.62 -999 26 3.4 102350 86
2006-02-22 09:50 51°12.008 2°25.814 -999 26 3.3 102340 87
2006-02-22 09:51 51°12.159 2°26.001 -999 26 3.3 102360 87
2006-02-22 09:52 51°12.317 2°26.191 -999 26 3.3 102340 87
2006-02-22 09:53 51°12.476 2°26.383 -999 26 3.3 102360 87
2006-02-22 09:54 51°12.629 2°26.567 -999 21 3.3 102340 87
2006-02-22 09:55 51°12.778 2°26.76 -999 31 3.3 102350 87
2006-02-22 09:56 51°12.925 2°26.945 -999 27 3.3 102340 87
2006-02-22 09:57 51°13.076 2°27.138 -999 30 3.3 102300 87
2006-02-22 09:58 51°13.212 2°27.314 -999 29 3.2 102300 87
2006-02-22 09:59 51°13.363 2°27.51 -999 21 3.2 102310 87
2006-02-22 10:00 51°13.51 2°27.7 -999 21 3.2 102290 87
2006-02-22 10:01 51°13.66 2°27.896 -999 23 3.2 102310 87
2006-02-22 10:02 51°13.803 2°28.084 -999 24 3.1 102300 88
2006-02-22 10:03 51°13.945 2°28.275 -999 26 3.1 102310 88
2006-02-22 10:04 51°14.094 2°28.468 -999 21 3.1 102300 87
2006-02-22 10:05 51°14.239 2°28.66 -999 28 3.1 102320 88
2006-02-22 10:06 51°14.39 2°28.857 -999 27 3.1 102300 87
2006-02-22 10:07 51°14.536 2°29.048 -999 23 3.1 102320 86
2006-02-22 10:08 51°14.682 2°29.233 -999 21 3.1 102330 87
2006-02-22 10:09 51°14.83 2°29.424 -999 27 3 102330 88
2006-02-22 10:10 51°14.975 2°29.616 -999 24 2.9 102320 90
2006-02-22 10:11 51°15.12 2°29.804 -999 30 2.8 102310 90
2006-02-22 10:12 51°15.264 2°29.994 -999 31 2.9 102340 89
2006-02-22 10:13 51°15.412 2°30.187 -999 23 2.9 102340 89
2006-02-22 10:14 51°15.56 2°30.38 -999 23 2.9 102350 89
2006-02-22 10:15 51°15.709 2°30.576 -999 28 2.9 102320 88
2006-02-22 10:16 51°15.857 2°30.771 -999 29 2.9 102310 87
2006-02-22 10:17 51°16.009 2°30.972 -999 30 3 102320 87
2006-02-22 10:18 51°16.158 2°31.164 -999 29 3 102340 86
2006-02-22 10:19 51°16.314 2°31.359 -999 28 3 102320 86
2006-02-22 10:20 51°16.461 2°31.544 -999 28 3 102320 87
2006-02-22 10:21 51°16.608 2°31.731 -999 23 3 102330 86
2006-02-22 10:22 51°16.757 2°31.926 -999 23 3 102320 86
2006-02-22 10:23 51°16.9 2°32.116 -999 27 3 102320 86
2006-02-22 10:24 51°17.049 2°32.311 -999 27 3 102320 87
2006-02-22 10:25 51°17.195 2°32.502 -999 29 2.9 102330 86
2006-02-22 10:26 51°17.345 2°32.695 -999 30 3 102340 86
2006-02-22 10:27 51°17.487 2°32.878 -999 27 2.9 102350 86
2006-02-22 10:28 51°17.632 2°33.068 -999 26 2.9 102330 86
2006-02-22 10:29 51°17.779 2°33.256 -999 24 2.9 102340 86
2006-02-22 10:30 51°17.925 2°33.44 -999 29 3 102350 86
2006-02-22 10:31 51°18.075 2°33.626 -999 25 3 102330 86
2006-02-22 10:32 51°18.217 2°33.809 -999 26 3 102340 86
2006-02-22 10:33 51°18.37 2°34.005 -999 24 2.9 102360 85
2006-02-22 10:34 51°18.515 2°34.192 -999 28 2.9 102350 86
2006-02-22 10:35 51°18.666 2°34.383 -999 24 2.9 102360 85
2006-02-22 10:36 51°18.81 2°34.57 -999 26 2.9 102350 85
2006-02-22 10:37 51°18.952 2°34.746 -999 31 2.9 102350 84
2006-02-22 10:38 51°19.098 2°34.934 -999 28 3 102390 85
2006-02-22 10:39 51°19.247 2°35.117 -999 36 3 102360 85
2006-02-22 10:40 51°19.392 2°35.302 -999 27 3 102360 85
2006-02-22 10:41 51°19.529 2°35.474 -999 27 3 102360 84
2006-02-22 10:42 51°19.677 2°35.66 -999 27 3 102370 84
2006-02-22 10:43 51°19.821 2°35.837 -999 26 3 102360 84
2006-02-22 10:44 51°19.969 2°36.019 -999 30 3 102360 85
2006-02-22 10:45 51°20.102 2°36.228 -999 23 2.9 102370 84
2006-02-22 10:46 51°20.227 2°36.449 -999 20 2.9 102370 85
2006-02-22 10:47 51°20.356 2°36.672 -999 27 2.9 102360 84
2006-02-22 10:48 51°20.486 2°36.884 -999 32 2.9 102390 84
2006-02-22 10:49 51°20.63 2°37.077 -999 25 3 102390 84
2006-02-22 10:50 51°20.775 2°37.255 -999 31 3 102410 84
2006-02-22 10:51 51°20.942 2°37.405 -999 43 2.9 102380 84
2006-02-22 10:52 51°21.113 2°37.535 -999 42 2.9 102380 83
2006-02-22 10:53 51°21.299 2°37.647 -999 34 3 102410 84
2006-02-22 10:54 51°21.483 2°37.728 -999 39 3 102430 84
2006-02-22 10:55 51°21.673 2°37.811 -999 53 3 102350 83
2006-02-22 10:56 51°21.871 2°37.842 -999 47 3 102370 84
2006-02-22 10:57 51°22.062 2°37.865 -999 54 3 102360 84
2006-02-22 10:58 51°22.248 2°37.885 -999 50 3 102400 84
2006-02-22 10:59 51°22.432 2°37.905 -999 53 3 102380 84
2006-02-22 11:00 51°22.624 2°37.932 -999 52 2.9 102380 86
2006-02-22 11:01 51°22.811 2°37.953 -999 53 2.8 102390 86
2006-02-22 11:02 51°23.003 2°37.995 -999 45 2.8 102380 86
2006-02-22 11:03 51°23.189 2°38.089 -999 39 2.8 102380 85
2006-02-22 11:04 51°23.36 2°38.202 -999 40 2.8 102360 84
2006-02-22 11:05 51°23.509 2°38.342 -999 19 2.8 102400 83
2006-02-22 11:06 51°23.642 2°38.553 -999 16 2.8 102420 84
2006-02-22 11:07 51°23.771 2°38.781 -999 19 2.8 102420 84
2006-02-22 11:08 51°23.899 2°39.012 -999 19 2.9 102420 85
2006-02-22 11:09 51°24.026 2°39.248 -999 18 2.7 102410 87
2006-02-22 11:10 51°24.142 2°39.478 -999 21 2.6 102430 88
2006-02-22 11:11 51°24.261 2°39.709 -999 14 2.5 102420 88
2006-02-22 11:12 51°24.373 2°39.949 -999 18 2.5 102440 88
2006-02-22 11:13 51°24.486 2°40.2 -999 15 2.6 102430 88
2006-02-22 11:14 51°24.596 2°40.448 -999 10 2.6 102420 88
2006-02-22 11:15 51°24.708 2°40.693 -999 16 2.5 102420 89
2006-02-22 11:16 51°24.811 2°40.923 -999 18 2.4 102400 90
2006-02-22 11:17 51°24.923 2°41.163 -999 20 2.3 102420 91
2006-02-22 11:18 51°25.03 2°41.402 -999 15 2.3 102440 92
2006-02-22 11:19 51°25.124 2°41.657 -999 13 2.3 102420 92
2006-02-22 11:20 51°25.178 2°41.943 -999 3 2.3 102420 92
2006-02-22 11:21 51°25.181 2°42.243 -999 342 2.3 102430 92
2006-02-22 11:22 51°25.073 2°42.491 -999 326 2.3 102400 92
2006-02-22 11:23 51°24.924 2°42.707 -999 318 2.4 102400 92
2006-02-22 11:24 51°24.774 2°42.918 -999 321 2.4 102390 91
2006-02-22 11:25 51°24.621 2°43.126 -999 322 2.5 102390 91
2006-02-22 11:26 51°24.471 2°43.345 -999 322 2.5 102400 91
2006-02-22 11:27 51°24.326 2°43.559 -999 324 2.5 102410 91
2006-02-22 11:28 51°24.177 2°43.773 -999 329 2.6 102420 90
2006-02-22 11:29 51°24.031 2°43.992 -999 325 2.6 102380 90
2006-02-22 11:30 51°23.878 2°44.209 -999 227 2.6 102390 89
2006-02-22 11:31 51°23.725 2°44.413 -999 319 2.6 102380 88
2006-02-22 11:32 51°23.555 2°44.607 -999 314 2.7 102390 88
2006-02-22 11:33 51°23.378 2°44.764 -999 314 2.7 102380 87
2006-02-22 11:34 51°23.197 2°44.922 -999 44 2.7 102390 87
2006-02-22 11:35 51°23.013 2°45.087 -999 305 2.7 102380 86
2006-02-22 11:36 51°22.832 2°45.243 -999 308 2.7 102400 86
2006-02-22 11:37 51°22.644 2°45.398 -999 311 2.7 102400 86
2006-02-22 11:38 51°22.46 2°45.547 -999 308 2.8 102400 85
2006-02-22 11:39 51°22.269 2°45.706 -999 314 2.7 102390 85
2006-02-22 11:40 51°22.088 2°45.857 -999 313 2.8 102400 84
2006-02-22 11:41 51°21.903 2°46.016 -999 316 2.7 102390 84
2006-02-22 11:42 51°21.723 2°46.184 -999 304 2.8 102410 84
2006-02-22 11:43 51°21.541 2°46.339 -999 317 2.8 102370 83
2006-02-22 11:44 51°21.357 2°46.497 -999 228 2.8 102380 83
2006-02-22 11:45 51°21.189 2°46.675 -999 311 2.8 102390 83
2006-02-22 11:46 51°21.023 2°46.865 -999 323 2.8 102390 83
2006-02-22 11:47 51°20.861 2°47.05 -999 229 2.8 102380 83
2006-02-22 11:48 51°20.702 2°47.256 -999 322 2.8 102410 82
2006-02-22 11:49 51°20.544 2°47.459 -999 318 2.8 102390 82
2006-02-22 11:50 51°20.387 2°47.667 -999 324 2.8 102380 82
2006-02-22 11:51 51°20.229 2°47.877 -999 320 2.8 102410 82
2006-02-22 11:52 51°20.073 2°48.083 -999 325 2.8 102410 82
2006-02-22 11:53 51°19.919 2°48.296 -999 328 2.8 102400 81
2006-02-22 11:54 51°19.791 2°48.484 -999 323 2.8 102380 81
2006-02-22 11:55 51°19.741 2°48.55 -999 320 2.8 102440 81
2006-02-22 11:56 51°19.708 2°48.551 -999 227 2.8 102430 81
2006-02-22 11:57 51°19.683 2°48.53 -999 314 2.8 102450 81
2006-02-22 11:58 51°19.66 2°48.489 -999 293 2.8 102440 81
2006-02-22 11:59 51°19.643 2°48.442 -999 272 2.8 102470 81
2006-02-22 12:00 51°19.624 2°48.391 -999 264 2.8 102440 81
2006-02-22 12:01 51°19.59 2°48.353 -999 290 2.8 102450 81
2006-02-22 12:02 51°19.5 2°48.437 -999 317 2.8 102420 82
2006-02-22 12:03 51°19.381 2°48.63 -999 317 2.8 102390 82
2006-02-22 12:04 51°19.244 2°48.854 -999 332 2.9 102410 82
2006-02-22 12:05 51°19.113 2°49.073 -999 324 2.9 102390 82
2006-02-22 12:06 51°18.976 2°49.296 -999 322 2.8 102390 81
2006-02-22 12:07 51°18.847 2°49.517 -999 323 2.8 102390 81
2006-02-22 12:08 51°18.715 2°49.739 -999 326 2.9 102400 82
2006-02-22 12:09 51°18.582 2°49.963 -999 326 2.8 102400 81
2006-02-22 12:10 51°18.452 2°50.192 -999 326 2.8 102390 81
2006-02-22 12:11 51°18.323 2°50.419 -999 328 2.8 102400 81
2006-02-22 12:12 51°18.195 2°50.644 -999 323 2.9 102380 81
2006-02-22 12:13 51°18.061 2°50.877 -999 328 2.9 102400 81
2006-02-22 12:14 51°17.929 2°51.103 -999 327 2.9 102390 81
2006-02-22 12:15 51°17.795 2°51.328 -999 321 2.9 102380 81
2006-02-22 12:16 51°17.66 2°51.551 -999 325 3 102400 82
2006-02-22 12:17 51°17.525 2°51.77 -999 330 2.9 102390 81
2006-02-22 12:18 51°17.386 2°52.003 -999 329 2.9 102390 81
2006-02-22 12:19 51°17.224 2°52.19 -999 315 2.9 102390 81
2006-02-22 12:20 51°17.034 2°52.331 -999 312 3 102390 81
2006-02-22 12:21 51°16.842 2°52.466 -999 313 3 102390 81
2006-02-22 12:22 51°16.651 2°52.6 -999 312 2.9 102390 81
2006-02-22 12:23 51°16.459 2°52.735 -999 306 2.9 102390 81
2006-02-22 12:24 51°16.265 2°52.859 -999 302 3 102420 81
2006-02-22 12:25 51°16.073 2°52.985 -999 304 3 102410 81
2006-02-22 12:26 51°15.88 2°53.106 -999 43 3 102420 81
2006-02-22 12:27 51°15.691 2°53.231 -999 43 3 102410 81
2006-02-22 12:28 51°15.514 2°53.367 -999 324 3 102420 81
2006-02-22 12:29 51°15.429 2°53.505 -999 323 3 102430 81
2006-02-22 12:30 51°15.358 2°53.602 -999 324 3 102430 80
2006-02-22 12:31 51°15.308 2°53.675 -999 331 3 102440 80
2006-02-22 12:32 51°15.271 2°53.732 -999 331 3 102430 79
2006-02-22 12:33 51°15.245 2°53.774 -999 340 3 102430 79
2006-02-22 12:34 51°15.223 2°53.812 -999 340 3.1 102440 79
2006-02-22 12:35 51°15.199 2°53.861 -999 338 3.1 102430 79
2006-02-22 12:36 51°15.173 2°53.934 -999 336 3.1 102430 78
2006-02-22 12:37 51°15.148 2°54.007 -999 342 3.1 102430 78
2006-02-22 12:38 51°15.121 2°54.056 -999 330 3.1 102430 78
2006-02-22 12:39 51°15.097 2°54.09 -999 330 3.1 102430 78
2006-02-22 12:40 51°15.074 2°54.116 -999 330 3.1 102440 77
2006-02-22 12:41 51°15.054 2°54.142 -999 325 3.2 102440 78
2006-02-22 12:42 51°15.032 2°54.165 -999 333 3.1 102430 78
2006-02-22 12:43 51°15.008 2°54.19 -999 330 3.1 102430 78
2006-02-22 12:44 51°14.985 2°54.211 -999 331 3.1 102430 77
2006-02-22 12:45 51°14.96 2°54.232 -999 325 3.1 102430 77
2006-02-22 12:46 51°14.938 2°54.254 -999 330 3.1 102440 77
2006-02-22 12:47 51°14.916 2°54.276 -999 316 3.1 102430 77
2006-02-22 12:48 51°14.881 2°54.301 -999 306 3.1 102430 76
2006-02-22 12:49 51°14.797 2°54.4 -999 315 3.1 102420 77
2006-02-22 12:50 51°14.668 2°54.547 -999 324 3.2 102420 77
2006-02-22 12:51 51°14.533 2°54.718 -999 324 3.2 102420 77
2006-02-22 12:52 51°14.418 2°54.925 -999 319 3.2 102400 77
2006-02-22 12:53 51°14.318 2°55.151 -999 334 3.2 102430 77
2006-02-22 12:54 51°14.219 2°55.317 -999 315 3.3 102450 77
2006-02-22 12:55 51°14.122 2°55.404 -999 299 3.3 102450 76
2006-02-22 12:56 51°14.026 2°55.478 -999 318 3.3 102450 76
2006-02-22 12:57 51°13.936 2°55.542 -999 287 3.4 102440 76
2006-02-22 12:58 51°13.853 2°55.605 -999 312 3.4 102460 75
2006-02-22 12:59 51°13.779 2°55.687 -999 324 3.3 102460 75
2006-02-22 13:00 51°13.716 2°55.789 -999 340 3.4 102460 75
2006-02-22 13:01 51°13.664 2°55.898 -999 327 3.4 102450 75
2006-02-22 13:02 51°13.629 2°56.001 -999 330 3.4 102460 75
2006-02-22 13:03 51°13.608 2°56.067 -999 324 3.5 102460 75
2006-02-22 13:04 51°13.602 2°56.084 -999 311 3.4 102460 75
2006-02-22 13:05 51°13.598 2°56.093 -999 351 3.5 102460 75
2006-02-22 13:06 51°13.597 2°56.095 -999 331 3.5 102460 75
2006-02-22 13:07 51°13.598 2°56.095 -999 317 3.5 102460 75
2006-02-22 13:08 51°13.598 2°56.094 -999 300 3.5 102460 75
2006-02-22 13:09 51°13.598 2°56.095 -999 312 3.5 102470 75
2006-02-22 13:10 51°13.598 2°56.094 -999 308 3.5 102460 75
2006-02-22 13:11 51°13.598 2°56.094 -999 226 3.5 102460 75
2006-02-22 13:12 51°13.598 2°56.094 -999 305 3.5 102460 75
2006-02-22 13:13 51°13.598 2°56.094 -999 314 3.6 -999 74
2006-02-22 13:14 51°13.598 2°56.094 -999 326 3.5 102460 74